sensor_id;sensor_type;location;lat;lon;timestamp;P1;durP1;ratioP1;P2;durP2;ratioP2
75926;SDS011;64605;48.296;16.416;2022-12-10T00:01:38;17.88;;;13.48;;
75926;SDS011;64605;48.296;16.416;2022-12-10T00:04:05;14.45;;;12.60;;
75926;SDS011;64605;48.296;16.416;2022-12-10T00:06:31;15.88;;;12.27;;
75926;SDS011;64605;48.296;16.416;2022-12-10T00:08:59;16.98;;;13.77;;
75926;SDS011;64605;48.296;16.416;2022-12-10T00:11:25;18.20;;;13.73;;
75926;SDS011;64605;48.296;16.416;2022-12-10T00:13:51;14.68;;;12.48;;
75926;SDS011;64605;48.296;16.416;2022-12-10T00:16:19;15.27;;;12.45;;
75926;SDS011;64605;48.296;16.416;2022-12-10T00:18:46;16.02;;;13.15;;
75926;SDS011;64605;48.296;16.416;2022-12-10T00:21:14;12.13;;;9.77;;
75926;SDS011;64605;48.296;16.416;2022-12-10T00:23:42;13.07;;;11.35;;
75926;SDS011;64605;48.296;16.416;2022-12-10T00:26:10;12.90;;;10.98;;
75926;SDS011;64605;48.296;16.416;2022-12-10T00:28:37;13.93;;;12.07;;
75926;SDS011;64605;48.296;16.416;2022-12-10T00:31:04;12.15;;;10.50;;
75926;SDS011;64605;48.296;16.416;2022-12-10T00:33:31;14.95;;;12.00;;
75926;SDS011;64605;48.296;16.416;2022-12-10T00:36:01;10.93;;;9.45;;
75926;SDS011;64605;48.296;16.416;2022-12-10T00:38:28;11.52;;;9.98;;
75926;SDS011;64605;48.296;16.416;2022-12-10T00:40:54;11.80;;;9.40;;
75926;SDS011;64605;48.296;16.416;2022-12-10T00:43:19;13.48;;;11.18;;
75926;SDS011;64605;48.296;16.416;2022-12-10T00:45:45;12.85;;;10.02;;
75926;SDS011;64605;48.296;16.416;2022-12-10T00:48:10;13.38;;;10.68;;
75926;SDS011;64605;48.296;16.416;2022-12-10T00:50:36;13.85;;;10.60;;
75926;SDS011;64605;48.296;16.416;2022-12-10T00:53:02;11.70;;;10.27;;
75926;SDS011;64605;48.296;16.416;2022-12-10T00:55:27;11.93;;;9.82;;
75926;SDS011;64605;48.296;16.416;2022-12-10T00:57:53;13.43;;;11.38;;
75926;SDS011;64605;48.296;16.416;2022-12-10T01:00:18;12.60;;;10.13;;
75926;SDS011;64605;48.296;16.416;2022-12-10T01:02:44;12.60;;;10.13;;
75926;SDS011;64605;48.296;16.416;2022-12-10T01:05:10;15.68;;;11.77;;
75926;SDS011;64605;48.296;16.416;2022-12-10T01:07:35;11.30;;;9.20;;
75926;SDS011;64605;48.296;16.416;2022-12-10T01:10:01;10.88;;;9.35;;
75926;SDS011;64605;48.296;16.416;2022-12-10T01:12:27;12.73;;;10.43;;
75926;SDS011;64605;48.296;16.416;2022-12-10T01:14:53;14.35;;;10.45;;
75926;SDS011;64605;48.296;16.416;2022-12-10T01:17:18;13.52;;;10.60;;
75926;SDS011;64605;48.296;16.416;2022-12-10T01:19:46;13.55;;;10.45;;
75926;SDS011;64605;48.296;16.416;2022-12-10T01:22:12;13.10;;;10.48;;
75926;SDS011;64605;48.296;16.416;2022-12-10T01:24:37;12.05;;;10.10;;
75926;SDS011;64605;48.296;16.416;2022-12-10T01:27:03;12.80;;;10.05;;
75926;SDS011;64605;48.296;16.416;2022-12-10T01:29:29;15.88;;;10.98;;
75926;SDS011;64605;48.296;16.416;2022-12-10T01:31:55;14.55;;;11.48;;
75926;SDS011;64605;48.296;16.416;2022-12-10T01:34:22;11.70;;;9.68;;
75926;SDS011;64605;48.296;16.416;2022-12-10T01:36:52;11.10;;;8.75;;
75926;SDS011;64605;48.296;16.416;2022-12-10T01:39:19;12.05;;;10.10;;
75926;SDS011;64605;48.296;16.416;2022-12-10T01:41:50;11.50;;;9.43;;
75926;SDS011;64605;48.296;16.416;2022-12-10T01:46:44;13.13;;;10.52;;
75926;SDS011;64605;48.296;16.416;2022-12-10T01:49:13;13.55;;;10.77;;
75926;SDS011;64605;48.296;16.416;2022-12-10T01:51:40;12.23;;;10.65;;
75926;SDS011;64605;48.296;16.416;2022-12-10T01:54:09;14.02;;;10.85;;
75926;SDS011;64605;48.296;16.416;2022-12-10T01:56:38;14.63;;;11.13;;
75926;SDS011;64605;48.296;16.416;2022-12-10T01:59:07;16.25;;;12.70;;
75926;SDS011;64605;48.296;16.416;2022-12-10T02:01:52;13.52;;;10.85;;
75926;SDS011;64605;48.296;16.416;2022-12-10T02:04:31;16.40;;;13.00;;
75926;SDS011;64605;48.296;16.416;2022-12-10T02:07:20;13.90;;;10.98;;
75926;SDS011;64605;48.296;16.416;2022-12-10T02:12:21;14.10;;;11.40;;
75926;SDS011;64605;48.296;16.416;2022-12-10T02:15:16;15.80;;;13.13;;
75926;SDS011;64605;48.296;16.416;2022-12-10T02:18:13;18.55;;;13.70;;
75926;SDS011;64605;48.296;16.416;2022-12-10T02:20:46;16.58;;;12.85;;
75926;SDS011;64605;48.296;16.416;2022-12-10T02:31:13;16.70;;;13.40;;
75926;SDS011;64605;48.296;16.416;2022-12-10T02:33:43;16.98;;;13.63;;
75926;SDS011;64605;48.296;16.416;2022-12-10T02:36:13;19.30;;;14.23;;
75926;SDS011;64605;48.296;16.416;2022-12-10T02:38:40;18.55;;;13.77;;
75926;SDS011;64605;48.296;16.416;2022-12-10T02:41:12;17.42;;;14.07;;
75926;SDS011;64605;48.296;16.416;2022-12-10T02:43:42;16.25;;;12.70;;
75926;SDS011;64605;48.296;16.416;2022-12-10T02:46:10;17.38;;;13.70;;
75926;SDS011;64605;48.296;16.416;2022-12-10T02:48:36;22.55;;;15.75;;
75926;SDS011;64605;48.296;16.416;2022-12-10T02:51:03;21.05;;;15.90;;
75926;SDS011;64605;48.296;16.416;2022-12-10T02:53:29;18.63;;;15.15;;
75926;SDS011;64605;48.296;16.416;2022-12-10T02:55:58;20.23;;;15.63;;
75926;SDS011;64605;48.296;16.416;2022-12-10T03:01:23;17.67;;;14.13;;
75926;SDS011;64605;48.296;16.416;2022-12-10T03:03:53;19.98;;;14.38;;
75926;SDS011;64605;48.296;16.416;2022-12-10T03:09:02;20.65;;;14.55;;
75926;SDS011;64605;48.296;16.416;2022-12-10T03:11:32;19.35;;;14.80;;
75926;SDS011;64605;48.296;16.416;2022-12-10T03:14:10;18.08;;;14.30;;
75926;SDS011;64605;48.296;16.416;2022-12-10T03:16:45;20.65;;;15.20;;
75926;SDS011;64605;48.296;16.416;2022-12-10T03:19:18;22.17;;;15.93;;
75926;SDS011;64605;48.296;16.416;2022-12-10T03:21:47;18.80;;;15.05;;
75926;SDS011;64605;48.296;16.416;2022-12-10T03:24:15;23.58;;;15.85;;
75926;SDS011;64605;48.296;16.416;2022-12-10T03:26:43;19.25;;;15.18;;
75926;SDS011;64605;48.296;16.416;2022-12-10T03:29:14;20.05;;;14.43;;
75926;SDS011;64605;48.296;16.416;2022-12-10T03:31:43;18.92;;;14.73;;
75926;SDS011;64605;48.296;16.416;2022-12-10T03:34:10;19.88;;;15.07;;
75926;SDS011;64605;48.296;16.416;2022-12-10T03:36:37;20.55;;;15.18;;
75926;SDS011;64605;48.296;16.416;2022-12-10T03:39:03;16.20;;;12.95;;
75926;SDS011;64605;48.296;16.416;2022-12-10T03:41:30;22.75;;;16.05;;
75926;SDS011;64605;48.296;16.416;2022-12-10T03:43:56;19.70;;;13.93;;
75926;SDS011;64605;48.296;16.416;2022-12-10T03:46:25;20.48;;;15.00;;
75926;SDS011;64605;48.296;16.416;2022-12-10T03:48:52;23.75;;;15.85;;
75926;SDS011;64605;48.296;16.416;2022-12-10T03:51:19;21.67;;;15.75;;
75926;SDS011;64605;48.296;16.416;2022-12-10T03:53:45;20.25;;;14.70;;
75926;SDS011;64605;48.296;16.416;2022-12-10T03:56:13;18.40;;;13.88;;
75926;SDS011;64605;48.296;16.416;2022-12-10T03:58:39;17.48;;;13.63;;
75926;SDS011;64605;48.296;16.416;2022-12-10T04:01:05;17.02;;;13.32;;
75926;SDS011;64605;48.296;16.416;2022-12-10T04:03:33;17.10;;;13.07;;
75926;SDS011;64605;48.296;16.416;2022-12-10T04:06:03;18.55;;;13.23;;
75926;SDS011;64605;48.296;16.416;2022-12-10T04:08:30;17.55;;;14.13;;
75926;SDS011;64605;48.296;16.416;2022-12-10T04:11:01;21.13;;;14.48;;
75926;SDS011;64605;48.296;16.416;2022-12-10T04:13:32;17.17;;;12.90;;
75926;SDS011;64605;48.296;16.416;2022-12-10T04:16:17;19.88;;;14.52;;
75926;SDS011;64605;48.296;16.416;2022-12-10T04:18:52;19.98;;;14.77;;
75926;SDS011;64605;48.296;16.416;2022-12-10T04:21:33;17.48;;;13.18;;
75926;SDS011;64605;48.296;16.416;2022-12-10T04:24:20;16.77;;;13.65;;
75926;SDS011;64605;48.296;16.416;2022-12-10T04:27:08;19.67;;;14.00;;
75926;SDS011;64605;48.296;16.416;2022-12-10T04:29:37;19.13;;;14.80;;
75926;SDS011;64605;48.296;16.416;2022-12-10T04:32:03;20.95;;;13.95;;
75926;SDS011;64605;48.296;16.416;2022-12-10T04:34:28;22.13;;;16.92;;
75926;SDS011;64605;48.296;16.416;2022-12-10T04:36:54;24.33;;;17.92;;
75926;SDS011;64605;48.296;16.416;2022-12-10T04:39:21;22.90;;;17.88;;
75926;SDS011;64605;48.296;16.416;2022-12-10T04:41:48;25.85;;;18.88;;
75926;SDS011;64605;48.296;16.416;2022-12-10T04:44:14;23.23;;;18.08;;
75926;SDS011;64605;48.296;16.416;2022-12-10T04:46:40;28.20;;;19.52;;
75926;SDS011;64605;48.296;16.416;2022-12-10T04:49:06;23.30;;;18.23;;
75926;SDS011;64605;48.296;16.416;2022-12-10T04:51:32;23.73;;;17.60;;
75926;SDS011;64605;48.296;16.416;2022-12-10T04:53:58;23.65;;;17.08;;
75926;SDS011;64605;48.296;16.416;2022-12-10T04:56:24;24.83;;;18.70;;
75926;SDS011;64605;48.296;16.416;2022-12-10T04:58:50;22.50;;;16.20;;
75926;SDS011;64605;48.296;16.416;2022-12-10T05:01:16;21.33;;;15.93;;
75926;SDS011;64605;48.296;16.416;2022-12-10T05:03:43;19.58;;;14.52;;
75926;SDS011;64605;48.296;16.416;2022-12-10T05:06:10;23.92;;;16.42;;
75926;SDS011;64605;48.296;16.416;2022-12-10T05:08:38;20.88;;;15.32;;
75926;SDS011;64605;48.296;16.416;2022-12-10T05:11:05;27.38;;;18.92;;
75926;SDS011;64605;48.296;16.416;2022-12-10T05:13:33;26.35;;;18.67;;
75926;SDS011;64605;48.296;16.416;2022-12-10T05:16:00;24.63;;;16.98;;
75926;SDS011;64605;48.296;16.416;2022-12-10T05:18:30;26.65;;;18.60;;
75926;SDS011;64605;48.296;16.416;2022-12-10T05:21:04;24.42;;;17.63;;
75926;SDS011;64605;48.296;16.416;2022-12-10T05:23:32;23.20;;;17.50;;
75926;SDS011;64605;48.296;16.416;2022-12-10T05:26:02;25.95;;;18.25;;
75926;SDS011;64605;48.296;16.416;2022-12-10T05:28:36;22.77;;;16.33;;
75926;SDS011;64605;48.296;16.416;2022-12-10T05:31:03;28.15;;;19.92;;
75926;SDS011;64605;48.296;16.416;2022-12-10T05:33:30;26.83;;;18.58;;
75926;SDS011;64605;48.296;16.416;2022-12-10T05:35:59;26.45;;;18.67;;
75926;SDS011;64605;48.296;16.416;2022-12-10T05:38:28;23.63;;;16.95;;
75926;SDS011;64605;48.296;16.416;2022-12-10T05:40:55;25.92;;;18.02;;
75926;SDS011;64605;48.296;16.416;2022-12-10T05:43:29;23.77;;;17.88;;
75926;SDS011;64605;48.296;16.416;2022-12-10T05:45:58;23.92;;;16.08;;
75926;SDS011;64605;48.296;16.416;2022-12-10T05:48:29;25.48;;;17.92;;
75926;SDS011;64605;48.296;16.416;2022-12-10T05:50:55;29.25;;;20.25;;
75926;SDS011;64605;48.296;16.416;2022-12-10T05:53:21;29.90;;;19.00;;
75926;SDS011;64605;48.296;16.416;2022-12-10T05:55:47;30.48;;;20.75;;
75926;SDS011;64605;48.296;16.416;2022-12-10T05:58:13;28.08;;;18.70;;
75926;SDS011;64605;48.296;16.416;2022-12-10T06:00:39;29.52;;;20.20;;
75926;SDS011;64605;48.296;16.416;2022-12-10T06:03:06;27.95;;;18.55;;
75926;SDS011;64605;48.296;16.416;2022-12-10T06:05:38;28.15;;;18.45;;
75926;SDS011;64605;48.296;16.416;2022-12-10T06:08:05;31.00;;;21.60;;
75926;SDS011;64605;48.296;16.416;2022-12-10T06:10:34;30.00;;;20.02;;
75926;SDS011;64605;48.296;16.416;2022-12-10T06:13:01;31.25;;;20.58;;
75926;SDS011;64605;48.296;16.416;2022-12-10T06:15:27;31.88;;;21.08;;
75926;SDS011;64605;48.296;16.416;2022-12-10T06:17:54;28.50;;;19.38;;
75926;SDS011;64605;48.296;16.416;2022-12-10T06:20:20;26.80;;;18.65;;
75926;SDS011;64605;48.296;16.416;2022-12-10T06:22:45;29.55;;;20.10;;
75926;SDS011;64605;48.296;16.416;2022-12-10T06:25:11;25.95;;;17.92;;
75926;SDS011;64605;48.296;16.416;2022-12-10T06:27:38;30.90;;;19.50;;
75926;SDS011;64605;48.296;16.416;2022-12-10T06:30:03;26.25;;;18.85;;
75926;SDS011;64605;48.296;16.416;2022-12-10T06:32:29;31.13;;;21.33;;
75926;SDS011;64605;48.296;16.416;2022-12-10T06:34:55;29.15;;;19.50;;
75926;SDS011;64605;48.296;16.416;2022-12-10T06:37:21;26.10;;;18.95;;
75926;SDS011;64605;48.296;16.416;2022-12-10T06:39:46;28.55;;;20.00;;
75926;SDS011;64605;48.296;16.416;2022-12-10T06:42:12;28.20;;;19.52;;
75926;SDS011;64605;48.296;16.416;2022-12-10T06:44:37;32.15;;;20.50;;
75926;SDS011;64605;48.296;16.416;2022-12-10T06:47:03;32.55;;;21.67;;
75926;SDS011;64605;48.296;16.416;2022-12-10T06:49:29;31.48;;;19.73;;
75926;SDS011;64605;48.296;16.416;2022-12-10T06:51:54;29.00;;;19.40;;
75926;SDS011;64605;48.296;16.416;2022-12-10T06:54:20;31.48;;;21.23;;
75926;SDS011;64605;48.296;16.416;2022-12-10T06:56:46;32.00;;;19.98;;
75926;SDS011;64605;48.296;16.416;2022-12-10T06:59:11;30.10;;;20.63;;
75926;SDS011;64605;48.296;16.416;2022-12-10T07:01:37;31.88;;;21.75;;
75926;SDS011;64605;48.296;16.416;2022-12-10T07:04:03;35.65;;;23.55;;
75926;SDS011;64605;48.296;16.416;2022-12-10T07:06:30;39.80;;;25.00;;
75926;SDS011;64605;48.296;16.416;2022-12-10T07:08:56;57.33;;;30.63;;
75926;SDS011;64605;48.296;16.416;2022-12-10T07:11:22;34.38;;;20.40;;
75926;SDS011;64605;48.296;16.416;2022-12-10T07:13:49;34.08;;;21.88;;
75926;SDS011;64605;48.296;16.416;2022-12-10T07:16:16;35.05;;;21.65;;
75926;SDS011;64605;48.296;16.416;2022-12-10T07:18:42;31.77;;;19.88;;
75926;SDS011;64605;48.296;16.416;2022-12-10T07:21:16;44.20;;;26.40;;
75926;SDS011;64605;48.296;16.416;2022-12-10T07:23:45;37.40;;;23.88;;
75926;SDS011;64605;48.296;16.416;2022-12-10T07:26:12;38.00;;;23.73;;
75926;SDS011;64605;48.296;16.416;2022-12-10T07:28:37;35.58;;;23.13;;
75926;SDS011;64605;48.296;16.416;2022-12-10T07:31:04;71.90;;;39.30;;
75926;SDS011;64605;48.296;16.416;2022-12-10T07:33:31;46.85;;;29.00;;
75926;SDS011;64605;48.296;16.416;2022-12-10T07:35:57;39.53;;;24.25;;
75926;SDS011;64605;48.296;16.416;2022-12-10T07:38:23;35.85;;;22.80;;
75926;SDS011;64605;48.296;16.416;2022-12-10T07:40:50;37.22;;;22.45;;
75926;SDS011;64605;48.296;16.416;2022-12-10T07:43:16;37.95;;;24.08;;
75926;SDS011;64605;48.296;16.416;2022-12-10T07:45:42;35.78;;;22.35;;
75926;SDS011;64605;48.296;16.416;2022-12-10T07:48:08;33.30;;;22.30;;
75926;SDS011;64605;48.296;16.416;2022-12-10T07:50:35;33.67;;;21.45;;
75926;SDS011;64605;48.296;16.416;2022-12-10T07:53:00;38.63;;;24.10;;
75926;SDS011;64605;48.296;16.416;2022-12-10T07:55:26;38.88;;;24.27;;
75926;SDS011;64605;48.296;16.416;2022-12-10T07:57:52;32.30;;;22.05;;
75926;SDS011;64605;48.296;16.416;2022-12-10T08:00:17;36.75;;;23.40;;
75926;SDS011;64605;48.296;16.416;2022-12-10T08:02:43;33.83;;;21.23;;
75926;SDS011;64605;48.296;16.416;2022-12-10T08:05:09;35.15;;;22.02;;
75926;SDS011;64605;48.296;16.416;2022-12-10T08:07:34;31.77;;;21.75;;
75926;SDS011;64605;48.296;16.416;2022-12-10T08:10:00;36.38;;;23.02;;
75926;SDS011;64605;48.296;16.416;2022-12-10T08:12:26;33.15;;;22.45;;
75926;SDS011;64605;48.296;16.416;2022-12-10T08:14:51;35.30;;;23.10;;
75926;SDS011;64605;48.296;16.416;2022-12-10T08:17:17;35.08;;;23.95;;
75926;SDS011;64605;48.296;16.416;2022-12-10T08:19:43;38.83;;;24.17;;
75926;SDS011;64605;48.296;16.416;2022-12-10T08:22:08;33.83;;;22.42;;
75926;SDS011;64605;48.296;16.416;2022-12-10T08:24:34;41.28;;;25.92;;
75926;SDS011;64605;48.296;16.416;2022-12-10T08:26:59;36.45;;;24.33;;
75926;SDS011;64605;48.296;16.416;2022-12-10T08:29:25;34.97;;;22.10;;
75926;SDS011;64605;48.296;16.416;2022-12-10T08:31:51;36.90;;;24.50;;
75926;SDS011;64605;48.296;16.416;2022-12-10T08:34:17;35.42;;;22.85;;
75926;SDS011;64605;48.296;16.416;2022-12-10T08:36:44;36.28;;;23.77;;
75926;SDS011;64605;48.296;16.416;2022-12-10T08:39:10;33.65;;;23.17;;
75926;SDS011;64605;48.296;16.416;2022-12-10T08:41:40;36.47;;;23.10;;
75926;SDS011;64605;48.296;16.416;2022-12-10T08:44:06;38.80;;;24.55;;
75926;SDS011;64605;48.296;16.416;2022-12-10T08:46:31;34.90;;;24.23;;
75926;SDS011;64605;48.296;16.416;2022-12-10T08:48:57;35.10;;;24.30;;
75926;SDS011;64605;48.296;16.416;2022-12-10T08:51:24;36.55;;;23.88;;
75926;SDS011;64605;48.296;16.416;2022-12-10T08:53:49;38.92;;;25.20;;
75926;SDS011;64605;48.296;16.416;2022-12-10T08:56:15;34.85;;;23.27;;
75926;SDS011;64605;48.296;16.416;2022-12-10T08:58:41;34.03;;;23.38;;
75926;SDS011;64605;48.296;16.416;2022-12-10T09:01:08;41.15;;;26.52;;
75926;SDS011;64605;48.296;16.416;2022-12-10T09:03:35;36.30;;;23.52;;
75926;SDS011;64605;48.296;16.416;2022-12-10T09:06:02;38.03;;;24.85;;
75926;SDS011;64605;48.296;16.416;2022-12-10T09:08:34;39.95;;;25.10;;
75926;SDS011;64605;48.296;16.416;2022-12-10T09:11:07;40.60;;;25.52;;
75926;SDS011;64605;48.296;16.416;2022-12-10T09:13:34;39.78;;;25.50;;
75926;SDS011;64605;48.296;16.416;2022-12-10T09:16:00;39.10;;;25.63;;
75926;SDS011;64605;48.296;16.416;2022-12-10T09:18:27;36.38;;;23.80;;
75926;SDS011;64605;48.296;16.416;2022-12-10T09:20:52;35.53;;;24.63;;
75926;SDS011;64605;48.296;16.416;2022-12-10T09:23:18;34.13;;;22.50;;
75926;SDS011;64605;48.296;16.416;2022-12-10T09:25:43;37.10;;;23.90;;
75926;SDS011;64605;48.296;16.416;2022-12-10T09:28:09;36.85;;;23.55;;
75926;SDS011;64605;48.296;16.416;2022-12-10T09:30:35;32.22;;;22.33;;
75926;SDS011;64605;48.296;16.416;2022-12-10T09:33:00;39.45;;;25.42;;
75926;SDS011;64605;48.296;16.416;2022-12-10T09:35:26;37.47;;;25.42;;
75926;SDS011;64605;48.296;16.416;2022-12-10T09:37:52;33.95;;;24.15;;
75926;SDS011;64605;48.296;16.416;2022-12-10T09:40:19;34.50;;;22.98;;
75926;SDS011;64605;48.296;16.416;2022-12-10T09:42:55;34.50;;;22.70;;
75926;SDS011;64605;48.296;16.416;2022-12-10T09:48:19;34.35;;;23.25;;
75926;SDS011;64605;48.296;16.416;2022-12-10T09:53:45;33.50;;;21.73;;
75926;SDS011;64605;48.296;16.416;2022-12-10T09:56:18;30.85;;;20.45;;
75926;SDS011;64605;48.296;16.416;2022-12-10T09:58:47;33.35;;;23.05;;
75926;SDS011;64605;48.296;16.416;2022-12-10T10:01:13;33.13;;;22.65;;
75926;SDS011;64605;48.296;16.416;2022-12-10T10:03:42;29.10;;;19.33;;
75926;SDS011;64605;48.296;16.416;2022-12-10T10:06:09;34.28;;;22.30;;
75926;SDS011;64605;48.296;16.416;2022-12-10T10:08:41;30.85;;;22.13;;
75926;SDS011;64605;48.296;16.416;2022-12-10T10:11:17;35.70;;;21.83;;
75926;SDS011;64605;48.296;16.416;2022-12-10T10:13:45;29.85;;;21.02;;
75926;SDS011;64605;48.296;16.416;2022-12-10T10:18:51;35.30;;;23.40;;
75926;SDS011;64605;48.296;16.416;2022-12-10T10:21:25;36.60;;;23.65;;
75926;SDS011;64605;48.296;16.416;2022-12-10T10:23:58;35.45;;;22.85;;
75926;SDS011;64605;48.296;16.416;2022-12-10T10:26:24;33.55;;;23.33;;
75926;SDS011;64605;48.296;16.416;2022-12-10T10:28:53;37.58;;;25.05;;
75926;SDS011;64605;48.296;16.416;2022-12-10T10:31:26;38.95;;;25.58;;
75926;SDS011;64605;48.296;16.416;2022-12-10T10:33:57;33.70;;;23.73;;
75926;SDS011;64605;48.296;16.416;2022-12-10T10:36:28;34.97;;;23.88;;
75926;SDS011;64605;48.296;16.416;2022-12-10T10:39:09;35.42;;;24.05;;
75926;SDS011;64605;48.296;16.416;2022-12-10T10:41:43;38.40;;;26.17;;
75926;SDS011;64605;48.296;16.416;2022-12-10T10:44:15;34.95;;;23.98;;
75926;SDS011;64605;48.296;16.416;2022-12-10T10:46:44;37.38;;;24.60;;
75926;SDS011;64605;48.296;16.416;2022-12-10T10:49:33;40.58;;;25.73;;
75926;SDS011;64605;48.296;16.416;2022-12-10T10:52:05;33.88;;;24.48;;
75926;SDS011;64605;48.296;16.416;2022-12-10T10:54:39;34.72;;;23.38;;
75926;SDS011;64605;48.296;16.416;2022-12-10T11:00:01;32.40;;;22.50;;
75926;SDS011;64605;48.296;16.416;2022-12-10T11:02:49;34.42;;;23.33;;
75926;SDS011;64605;48.296;16.416;2022-12-10T11:05:23;36.40;;;24.75;;
75926;SDS011;64605;48.296;16.416;2022-12-10T11:08:01;36.72;;;23.65;;
75926;SDS011;64605;48.296;16.416;2022-12-10T11:10:27;34.72;;;23.92;;
75926;SDS011;64605;48.296;16.416;2022-12-10T11:12:55;34.05;;;23.83;;
75926;SDS011;64605;48.296;16.416;2022-12-10T11:18:20;36.28;;;24.55;;
75926;SDS011;64605;48.296;16.416;2022-12-10T11:26:09;38.15;;;25.33;;
75926;SDS011;64605;48.296;16.416;2022-12-10T11:41:58;32.75;;;22.15;;
75926;SDS011;64605;48.296;16.416;2022-12-10T11:44:47;31.67;;;21.15;;
75926;SDS011;64605;48.296;16.416;2022-12-10T12:00:52;33.90;;;22.95;;
75926;SDS011;64605;48.296;16.416;2022-12-10T12:09:04;29.88;;;21.92;;
75926;SDS011;64605;48.296;16.416;2022-12-10T12:11:48;30.08;;;21.27;;
75926;SDS011;64605;48.296;16.416;2022-12-10T12:16:49;32.63;;;21.60;;
75926;SDS011;64605;48.296;16.416;2022-12-10T12:19:28;32.03;;;22.42;;
75926;SDS011;64605;48.296;16.416;2022-12-10T12:22:00;37.08;;;24.35;;
75926;SDS011;64605;48.296;16.416;2022-12-10T12:24:37;35.75;;;24.38;;
75926;SDS011;64605;48.296;16.416;2022-12-10T12:27:12;33.47;;;22.95;;
75926;SDS011;64605;48.296;16.416;2022-12-10T12:30:25;32.83;;;23.33;;
75926;SDS011;64605;48.296;16.416;2022-12-10T12:35:45;36.60;;;24.67;;
75926;SDS011;64605;48.296;16.416;2022-12-10T12:40:52;52.08;;;29.95;;
75926;SDS011;64605;48.296;16.416;2022-12-10T12:43:31;35.20;;;24.02;;
75926;SDS011;64605;48.296;16.416;2022-12-10T12:46:05;31.90;;;22.17;;
75926;SDS011;64605;48.296;16.416;2022-12-10T12:51:27;31.85;;;21.42;;
75926;SDS011;64605;48.296;16.416;2022-12-10T12:53:57;32.35;;;20.38;;
75926;SDS011;64605;48.296;16.416;2022-12-10T13:04:24;31.67;;;21.80;;
75926;SDS011;64605;48.296;16.416;2022-12-10T13:07:15;35.45;;;22.95;;
75926;SDS011;64605;48.296;16.416;2022-12-10T13:12:31;28.05;;;19.45;;
75926;SDS011;64605;48.296;16.416;2022-12-10T13:20:40;25.95;;;18.50;;
75926;SDS011;64605;48.296;16.416;2022-12-10T13:33:52;29.70;;;20.67;;
75926;SDS011;64605;48.296;16.416;2022-12-10T13:39:33;30.83;;;20.27;;
75926;SDS011;64605;48.296;16.416;2022-12-10T13:49:59;35.47;;;22.10;;
75926;SDS011;64605;48.296;16.416;2022-12-10T13:52:30;30.80;;;21.05;;
75926;SDS011;64605;48.296;16.416;2022-12-10T13:58:08;32.00;;;22.27;;
75926;SDS011;64605;48.296;16.416;2022-12-10T14:00:49;34.38;;;23.00;;
75926;SDS011;64605;48.296;16.416;2022-12-10T14:05:58;32.83;;;20.98;;
75926;SDS011;64605;48.296;16.416;2022-12-10T14:08:56;32.75;;;21.92;;
75926;SDS011;64605;48.296;16.416;2022-12-10T14:11:28;33.65;;;22.83;;
75926;SDS011;64605;48.296;16.416;2022-12-10T14:13:57;29.98;;;21.48;;
75926;SDS011;64605;48.296;16.416;2022-12-10T14:16:26;36.08;;;23.73;;
75926;SDS011;64605;48.296;16.416;2022-12-10T14:19:01;33.83;;;22.02;;
75926;SDS011;64605;48.296;16.416;2022-12-10T14:21:37;30.17;;;20.90;;
75926;SDS011;64605;48.296;16.416;2022-12-10T14:24:06;37.45;;;23.63;;
75926;SDS011;64605;48.296;16.416;2022-12-10T14:26:54;33.58;;;21.67;;
75926;SDS011;64605;48.296;16.416;2022-12-10T14:29:26;34.08;;;21.45;;
75926;SDS011;64605;48.296;16.416;2022-12-10T14:31:52;34.50;;;22.45;;
75926;SDS011;64605;48.296;16.416;2022-12-10T14:34:19;35.85;;;23.40;;
75926;SDS011;64605;48.296;16.416;2022-12-10T14:36:50;35.53;;;23.40;;
75926;SDS011;64605;48.296;16.416;2022-12-10T14:39:24;34.47;;;22.83;;
75926;SDS011;64605;48.296;16.416;2022-12-10T14:41:53;38.65;;;24.08;;
75926;SDS011;64605;48.296;16.416;2022-12-10T14:44:31;41.10;;;25.33;;
75926;SDS011;64605;48.296;16.416;2022-12-10T14:47:04;36.00;;;23.50;;
75926;SDS011;64605;48.296;16.416;2022-12-10T14:49:31;36.00;;;23.80;;
75926;SDS011;64605;48.296;16.416;2022-12-10T14:51:57;35.72;;;22.85;;
75926;SDS011;64605;48.296;16.416;2022-12-10T14:54:28;35.10;;;22.75;;
75926;SDS011;64605;48.296;16.416;2022-12-10T14:56:57;35.05;;;22.38;;
75926;SDS011;64605;48.296;16.416;2022-12-10T14:59:28;36.85;;;23.75;;
75926;SDS011;64605;48.296;16.416;2022-12-10T15:02:01;44.78;;;27.00;;
75926;SDS011;64605;48.296;16.416;2022-12-10T15:04:40;39.05;;;24.48;;
75926;SDS011;64605;48.296;16.416;2022-12-10T15:07:17;40.38;;;25.70;;
75926;SDS011;64605;48.296;16.416;2022-12-10T15:09:51;38.83;;;24.33;;
75926;SDS011;64605;48.296;16.416;2022-12-10T15:15:10;39.95;;;23.15;;
75926;SDS011;64605;48.296;16.416;2022-12-10T15:17:54;37.28;;;22.33;;
75926;SDS011;64605;48.296;16.416;2022-12-10T15:23:29;37.95;;;23.20;;
75926;SDS011;64605;48.296;16.416;2022-12-10T15:28:38;37.75;;;25.08;;
75926;SDS011;64605;48.296;16.416;2022-12-10T15:39:15;43.45;;;24.77;;
75926;SDS011;64605;48.296;16.416;2022-12-10T15:46:59;42.00;;;26.42;;
75926;SDS011;64605;48.296;16.416;2022-12-10T15:49:28;45.28;;;26.33;;
75926;SDS011;64605;48.296;16.416;2022-12-10T15:51:54;42.28;;;25.48;;
75926;SDS011;64605;48.296;16.416;2022-12-10T15:54:22;43.38;;;27.10;;
75926;SDS011;64605;48.296;16.416;2022-12-10T15:56:51;46.30;;;28.25;;
75926;SDS011;64605;48.296;16.416;2022-12-10T15:59:17;47.78;;;28.40;;
75926;SDS011;64605;48.296;16.416;2022-12-10T16:01:43;40.30;;;26.63;;
75926;SDS011;64605;48.296;16.416;2022-12-10T16:04:09;39.08;;;24.60;;
75926;SDS011;64605;48.296;16.416;2022-12-10T16:06:35;43.63;;;26.25;;
75926;SDS011;64605;48.296;16.416;2022-12-10T16:09:00;38.60;;;24.60;;
75926;SDS011;64605;48.296;16.416;2022-12-10T16:11:26;41.72;;;26.20;;
75926;SDS011;64605;48.296;16.416;2022-12-10T16:13:53;39.90;;;25.50;;
75926;SDS011;64605;48.296;16.416;2022-12-10T16:16:22;41.67;;;25.75;;
75926;SDS011;64605;48.296;16.416;2022-12-10T16:18:48;40.95;;;24.98;;
75926;SDS011;64605;48.296;16.416;2022-12-10T16:21:14;38.63;;;25.35;;
75926;SDS011;64605;48.296;16.416;2022-12-10T16:23:40;42.40;;;24.92;;
75926;SDS011;64605;48.296;16.416;2022-12-10T16:26:24;37.53;;;24.90;;
75926;SDS011;64605;48.296;16.416;2022-12-10T16:28:50;40.03;;;25.40;;
75926;SDS011;64605;48.296;16.416;2022-12-10T16:31:17;43.08;;;26.90;;
75926;SDS011;64605;48.296;16.416;2022-12-10T16:33:45;40.88;;;25.50;;
75926;SDS011;64605;48.296;16.416;2022-12-10T16:36:12;37.63;;;24.00;;
75926;SDS011;64605;48.296;16.416;2022-12-10T16:38:38;39.75;;;25.63;;
75926;SDS011;64605;48.296;16.416;2022-12-10T16:41:09;38.63;;;24.65;;
75926;SDS011;64605;48.296;16.416;2022-12-10T16:43:43;36.92;;;23.85;;
75926;SDS011;64605;48.296;16.416;2022-12-10T16:46:13;37.42;;;24.40;;
75926;SDS011;64605;48.296;16.416;2022-12-10T16:48:39;36.80;;;23.92;;